createdAt,value
2018-08-24T00:00:05.008Z,68.91
2018-08-24T00:01:05.007Z,70.45
2018-08-24T00:02:05.005Z,70.55
2018-08-24T00:03:05.005Z,71.12
2018-08-24T00:04:04.999Z,71.89
2018-08-24T00:05:04.997Z,71.89
2018-08-24T00:06:04.997Z,74.96
2018-08-24T00:07:04.995Z,76.02
2018-08-24T00:08:04.991Z,76.40
2018-08-24T00:09:04.986Z,76.59
2018-08-24T00:10:04.993Z,75.92
2018-08-24T00:11:04.980Z,74.77
2018-08-24T00:12:04.979Z,73.43
2018-08-24T00:13:04.981Z,74.01
2018-08-24T00:14:04.976Z,74.19
2018-08-24T00:15:04.974Z,73.43
2018-08-24T00:16:04.974Z,72.37
2018-08-24T00:17:04.967Z,71.89
2018-08-24T00:18:04.965Z,71.70
2018-08-24T00:19:04.964Z,70.17
2018-08-24T00:20:04.960Z,70.36
2018-08-24T00:21:04.957Z,70.84
2018-08-24T00:22:04.957Z,70.17
2018-08-24T00:23:04.956Z,69.11
2018-08-24T00:24:04.955Z,68.44
2018-08-24T00:25:04.953Z,68.05
2018-08-24T00:26:04.948Z,67.19
2018-08-24T00:27:04.958Z,66.42
2018-08-24T00:28:04.941Z,66.03
2018-08-24T00:29:04.944Z,66.03
2018-08-24T00:30:04.947Z,65.36
2018-08-24T00:31:04.938Z,65.46
2018-08-24T00:32:04.938Z,66.23
2018-08-24T00:33:04.930Z,66.03
2018-08-24T00:34:04.929Z,65.46
2018-08-24T00:35:04.932Z,65.75
2018-08-24T00:36:04.924Z,66.52
2018-08-24T00:37:04.918Z,67.47
2018-08-24T00:38:04.923Z,68.34
2018-08-24T00:39:04.928Z,69.87
2018-08-24T00:40:04.913Z,70.13
2018-08-24T00:41:04.916Z,69.97
2018-08-24T00:42:04.911Z,70.23
2018-08-24T00:43:04.931Z,71.03
2018-08-24T00:44:04.903Z,71.37
2018-08-24T00:45:04.909Z,72.47
2018-08-24T00:46:04.901Z,71.86
2018-08-24T00:47:04.892Z,73.97
2018-08-24T00:48:04.896Z,74.35
2018-08-24T00:49:04.892Z,74.06
2018-08-24T00:50:04.891Z,76.37
2018-08-24T00:51:04.889Z,80.68
2018-08-24T00:52:04.883Z,83.65
2018-08-24T00:53:04.883Z,84.52
2018-08-24T00:54:04.882Z,85.86
2018-08-24T00:55:04.879Z,87.68
2018-08-24T00:56:04.880Z,89.46
2018-08-24T00:57:04.873Z,90.37
2018-08-24T00:58:04.873Z,92.58
2018-08-24T00:59:04.867Z,92.53
2018-08-24T01:00:04.866Z,92.86
2018-08-24T01:01:04.865Z,92.77
2018-08-24T01:02:04.896Z,93.06
2018-08-24T01:03:04.859Z,92.39
2018-08-24T01:04:04.858Z,92.19
2018-08-24T01:05:04.851Z,91.62
2018-08-24T01:06:04.851Z,90.75
2018-08-24T01:07:04.849Z,92.19
2018-08-24T01:08:04.844Z,90.56
2018-08-24T01:09:04.846Z,89.99
2018-08-24T01:10:04.842Z,91.52
2018-08-24T01:11:04.839Z,89.89
2018-08-24T01:12:04.839Z,90.08
2018-08-24T01:13:04.837Z,89.41
2018-08-24T01:14:04.830Z,90.08
2018-08-24T01:15:04.829Z,89.99
2018-08-24T01:16:04.828Z,89.70
2018-08-24T01:17:04.823Z,88.65
2018-08-24T01:18:04.823Z,88.74
2018-08-24T01:19:04.818Z,89.51
2018-08-24T01:20:04.819Z,87.40
2018-08-24T01:21:04.818Z,88.35
2018-08-24T01:22:04.814Z,86.63
2018-08-24T01:23:04.809Z,87.49
2018-08-24T01:24:04.805Z,85.96
2018-08-24T01:25:04.805Z,85.10
2018-08-24T01:26:04.803Z,85.77
2018-08-24T01:27:04.799Z,85.67
2018-08-24T01:28:04.798Z,85.77
2018-08-24T01:29:04.795Z,85.96
2018-08-24T01:30:04.793Z,84.91
2018-08-24T02:05:52.762Z,91.19
2018-08-24T02:06:52.730Z,90.52
2018-08-24T02:08:45.710Z,88.31
2018-08-24T02:09:45.696Z,87.74
2018-08-24T02:11:38.692Z,86.21
2018-08-24T02:12:38.663Z,85.53
2018-08-24T02:14:31.689Z,86.01
2018-08-24T02:15:31.595Z,85.72
2018-08-24T02:17:24.585Z,87.84
2018-08-24T02:18:24.571Z,87.55
2018-08-24T02:20:17.526Z,86.01
2018-08-24T02:21:17.495Z,85.72
2018-08-24T02:23:10.498Z,84.67
2018-08-24T02:24:10.485Z,83.52
2018-08-24T02:26:03.426Z,82.08
2018-08-24T02:27:03.385Z,81.31
2018-08-24T02:28:56.411Z,80.70
2018-08-24T02:29:56.393Z,80.03
2018-08-24T02:31:49.334Z,79.45
2018-08-24T02:32:49.295Z,78.97
2018-08-24T02:34:42.278Z,77.63
2018-08-24T02:35:42.259Z,77.19
2018-08-24T02:37:35.165Z,75.23
2018-08-24T02:38:35.156Z,74.85
2018-08-24T02:40:28.142Z,73.70
2018-08-24T02:41:28.152Z,74.08
2018-08-24T02:42:28.154Z,73.51
2018-08-24T02:43:28.151Z,73.03
2018-08-24T02:44:28.113Z,73.41
2018-08-24T02:45:28.109Z,72.36
2018-08-24T02:46:28.106Z,72.17
2018-08-24T02:47:28.101Z,71.31
2018-08-24T02:48:28.099Z,70.25
2018-08-24T02:49:28.094Z,69.58
2018-08-24T02:50:28.094Z,68.81
2018-08-24T02:51:28.100Z,68.24
2018-08-24T02:52:28.089Z,67.47
2018-08-24T02:53:28.086Z,66.89
2018-08-24T02:54:28.083Z,66.42
2018-08-24T02:55:28.084Z,65.55
2018-08-24T02:56:28.077Z,65.17
2018-08-24T02:57:28.074Z,64.22
2018-08-24T02:58:28.078Z,63.80
2018-08-24T02:59:28.082Z,63.22
2018-08-24T03:00:28.076Z,63.54
2018-08-24T03:01:28.068Z,62.74
2018-08-24T03:02:28.065Z,62.59
2018-08-24T03:03:28.059Z,63.16
2018-08-24T03:04:28.056Z,62.39
2018-08-24T03:05:28.169Z,62.49
2018-08-24T03:06:28.088Z,62.20
2018-08-24T03:07:28.108Z,62.17
2018-08-24T03:08:28.109Z,62.07
2018-08-24T03:09:28.044Z,61.88
2018-08-24T03:10:28.047Z,61.79
2018-08-24T03:11:28.039Z,60.93
2018-08-24T03:12:28.039Z,60.54
2018-08-24T03:13:28.033Z,60.06
2018-08-24T03:14:28.032Z,60.54
2018-08-24T03:15:28.047Z,60.64
2018-08-24T03:16:28.106Z,61.11
2018-08-24T03:17:28.027Z,61.31
2018-08-24T03:18:28.024Z,61.69
2018-08-24T03:19:28.022Z,61.02
2018-08-24T03:20:28.016Z,59.77
2018-08-24T03:21:28.117Z,59.01
2018-08-24T03:22:28.010Z,58.81
2018-08-24T03:23:28.009Z,57.76
2018-08-24T03:24:28.006Z,57.57
2018-08-24T03:25:28.011Z,56.52
2018-08-24T03:26:28.005Z,56.42
2018-08-24T03:27:28.000Z,56.42
2018-08-24T03:28:28.001Z,56.04
2018-08-24T03:29:27.991Z,55.56
2018-08-24T03:30:27.991Z,54.50
2018-08-24T03:31:27.990Z,53.93
2018-08-24T03:32:27.985Z,53.64
2018-08-24T03:33:27.985Z,53.36
2018-08-24T03:34:27.982Z,53.93
2018-08-24T03:35:27.978Z,54.32
2018-08-24T03:36:27.976Z,54.79
2018-08-24T03:37:27.975Z,54.50
2018-08-24T03:38:27.975Z,55.27
2018-08-24T03:39:27.971Z,54.99
2018-08-24T03:40:27.969Z,55.08
2018-08-24T03:41:27.964Z,55.27
2018-08-24T03:42:27.965Z,54.60
2018-08-24T03:43:27.959Z,55.36
2018-08-24T03:44:27.960Z,54.70
2018-08-24T03:45:27.954Z,54.32
2018-08-24T03:46:27.953Z,54.50
2018-08-24T03:47:27.946Z,54.32
2018-08-24T03:48:27.945Z,54.60
2018-08-24T03:49:27.944Z,54.03
2018-08-24T03:50:27.940Z,52.87
2018-08-24T03:51:27.944Z,52.69
2018-08-24T03:52:27.934Z,52.59
2018-08-24T03:53:27.936Z,51.73
2018-08-24T03:54:27.931Z,52.01
2018-08-24T03:55:27.930Z,52.20
2018-08-24T03:56:27.931Z,52.30
2018-08-24T03:57:27.924Z,53.07
2018-08-24T03:58:27.920Z,52.59
2018-08-24T03:59:27.917Z,52.78
2018-08-24T04:00:27.918Z,51.82
2018-08-24T04:01:27.915Z,51.63
2018-08-24T04:02:27.910Z,52.11
2018-08-24T04:03:27.910Z,51.54
2018-08-24T04:04:27.904Z,51.73
2018-08-24T04:05:27.903Z,51.73
2018-08-24T04:06:27.918Z,52.01
2018-08-24T04:07:27.897Z,52.11
2018-08-24T04:08:27.893Z,51.92
2018-08-24T04:09:27.888Z,52.11
2018-08-24T04:10:27.887Z,52.11
2018-08-24T04:11:27.885Z,51.99
2018-08-24T04:12:27.996Z,51.73
2018-08-24T04:13:27.896Z,51.51
2018-08-24T04:14:27.877Z,51.51
2018-08-24T04:15:27.876Z,50.74
2018-08-24T04:16:27.871Z,50.84
2018-08-24T04:17:27.875Z,50.36
2018-08-24T04:18:27.867Z,49.88
2018-08-24T04:19:27.995Z,48.25
2018-08-24T04:20:27.861Z,47.68
2018-08-24T04:21:27.859Z,47.11
2018-08-24T04:22:27.856Z,46.84
2018-08-24T04:23:27.858Z,46.84
2018-08-24T04:24:27.849Z,46.72
2018-08-24T04:25:27.848Z,47.20
2018-08-24T04:26:27.849Z,47.20
2018-08-24T04:27:27.839Z,46.91
2018-08-24T04:28:27.835Z,47.20
2018-08-24T04:29:27.835Z,46.55
2018-08-24T04:30:27.831Z,46.36
2018-08-24T04:31:27.831Z,46.26
2018-08-24T04:32:27.827Z,46.46
2018-08-24T04:33:27.827Z,46.55
2018-08-24T04:34:27.820Z,46.36
2018-08-24T04:35:27.819Z,47.03
2018-08-24T04:36:27.815Z,46.84
2018-08-24T04:37:27.814Z,48.38
2018-08-24T04:38:27.811Z,48.28
2018-08-24T04:39:27.807Z,49.14
2018-08-24T04:40:27.947Z,50.03
2018-08-24T04:41:27.817Z,51.15
2018-08-24T04:42:27.800Z,52.14
2018-08-24T04:43:27.794Z,52.50
2018-08-24T04:44:27.794Z,54.24
2018-08-24T04:45:27.849Z,55.87
2018-08-24T04:46:27.789Z,56.93
2018-08-24T04:47:27.789Z,58.37
2018-08-24T04:48:27.787Z,58.94
2018-08-24T04:49:27.775Z,59.04
2018-08-24T04:50:27.781Z,59.80
2018-08-24T04:51:27.864Z,59.90
2018-08-24T04:52:27.775Z,60.38
2018-08-24T04:53:27.770Z,60.57
2018-08-24T04:54:27.772Z,60.76
2018-08-24T04:55:27.769Z,61.05
2018-08-24T04:56:27.768Z,61.91
2018-08-24T04:57:27.774Z,61.82
2018-08-24T04:58:27.759Z,61.91
2018-08-24T04:59:27.758Z,61.72
2018-08-24T05:00:27.756Z,62.30
2018-08-24T05:01:27.749Z,62.30
2018-08-24T05:02:27.755Z,63.06
2018-08-24T05:03:27.749Z,62.87
2018-08-24T05:04:27.745Z,63.45
2018-08-24T05:05:27.745Z,63.16
2018-08-24T05:06:27.746Z,63.45
2018-08-24T05:07:27.736Z,62.39
2018-08-24T05:08:27.737Z,62.49
2018-08-24T05:09:27.732Z,61.63
2018-08-24T05:10:27.730Z,62.20
2018-08-24T05:11:27.727Z,62.49
2018-08-24T05:12:27.723Z,62.30
2018-08-24T05:13:27.719Z,61.82
2018-08-24T05:14:27.721Z,62.39
2018-08-24T05:15:27.720Z,62.20
2018-08-24T05:16:27.719Z,62.39
2018-08-24T05:17:27.716Z,62.59
2018-08-24T05:18:27.711Z,62.49
2018-08-24T05:19:27.714Z,63.54
2018-08-24T05:20:27.706Z,63.35
2018-08-24T05:21:27.793Z,65.55
2018-08-24T05:22:27.703Z,69.01
2018-08-24T05:23:27.701Z,70.06
2018-08-24T05:24:27.695Z,71.25
2018-08-24T05:25:27.694Z,71.15
2018-08-24T05:26:27.695Z,71.92
2018-08-24T05:27:27.689Z,73.07
2018-08-24T05:28:27.689Z,72.49
2018-08-24T05:29:27.686Z,72.30
2018-08-24T05:30:27.684Z,72.39
2018-08-24T05:31:27.679Z,73.07
2018-08-24T05:32:27.683Z,74.60
2018-08-24T05:33:27.678Z,74.02
2018-08-24T05:34:27.673Z,73.26
2018-08-24T05:35:27.706Z,74.02
2018-08-24T05:36:27.671Z,74.60
2018-08-24T05:37:27.668Z,73.83
2018-08-24T05:38:27.665Z,73.93
2018-08-24T05:39:27.661Z,75.56
2018-08-24T05:40:27.661Z,75.56
2018-08-24T05:41:27.716Z,76.32
2018-08-24T05:42:27.669Z,76.42
2018-08-24T05:43:27.653Z,78.92
2018-08-24T05:44:27.651Z,78.82
2018-08-24T05:45:27.647Z,79.68
2018-08-24T05:46:27.648Z,81.70
2018-08-24T05:47:27.645Z,81.22
2018-08-24T05:48:27.644Z,80.45
2018-08-24T05:49:27.644Z,79.49
2018-08-24T05:50:27.645Z,78.05
2018-08-24T05:51:27.636Z,77.86
2018-08-24T05:52:27.656Z,80.83
2018-08-24T05:53:27.628Z,80.64
2018-08-24T05:54:27.628Z,80.68
2018-08-24T05:55:27.623Z,80.97
2018-08-24T05:56:27.646Z,82.51
2018-08-24T05:57:27.624Z,84.33
2018-08-24T05:58:27.619Z,84.91
2018-08-24T05:59:27.622Z,86.92
2018-08-24T06:00:27.615Z,89.89
2018-08-24T06:01:27.616Z,89.79
2018-08-24T06:02:27.611Z,90.95
2018-08-24T06:03:27.607Z,91.28
2018-08-24T06:04:27.605Z,93.54
2018-08-24T06:05:27.610Z,93.20
2018-08-24T06:06:27.607Z,93.49
2018-08-24T06:07:27.601Z,93.82
2018-08-24T06:08:27.627Z,93.87
2018-08-24T06:09:27.598Z,94.79
2018-08-24T06:10:27.599Z,93.35
2018-08-24T06:11:27.595Z,94.12
2018-08-24T06:12:27.597Z,94.12
2018-08-24T06:13:27.590Z,93.15
2018-08-24T06:14:27.588Z,92.77
2018-08-24T06:15:27.588Z,91.91
2018-08-24T06:16:27.594Z,91.52
2018-08-24T06:17:27.586Z,91.62
2018-08-24T06:18:27.587Z,89.89
2018-08-24T06:19:27.581Z,89.03
2018-08-24T06:20:27.580Z,90.37
2018-08-24T06:21:27.580Z,90.18
2018-08-24T06:22:27.578Z,89.51
2018-08-24T06:23:27.576Z,89.51
2018-08-24T06:24:27.637Z,89.99
2018-08-24T06:25:27.573Z,91.14
2018-08-24T06:26:27.573Z,91.33
2018-08-24T06:27:27.567Z,91.62
2018-08-24T06:28:27.567Z,92.96
2018-08-24T06:29:27.564Z,91.33
2018-08-24T06:30:27.565Z,90.85
2018-08-24T06:31:27.557Z,90.56
2018-08-24T06:32:27.559Z,90.95
2018-08-24T06:33:27.558Z,89.70
2018-08-24T06:34:27.555Z,89.89
2018-08-24T06:35:27.551Z,89.89
2018-08-24T06:36:27.557Z,88.55
2018-08-24T06:37:27.546Z,87.40
2018-08-24T06:38:27.547Z,87.30
2018-08-24T06:39:27.547Z,87.78
2018-08-24T06:40:27.542Z,89.89
2018-08-24T06:41:27.543Z,89.89
2018-08-24T06:42:27.545Z,93.15
2018-08-24T06:43:27.536Z,93.54
2018-08-24T06:44:27.532Z,93.06
2018-08-24T06:45:27.535Z,92.96
2018-08-24T06:46:27.529Z,93.15
2018-08-24T06:47:27.606Z,94.79
2018-08-24T06:48:27.540Z,95.84
2018-08-24T06:49:27.524Z,95.36
2018-08-24T06:50:27.520Z,97.19
2018-08-24T06:51:27.520Z,97.81
2018-08-24T06:52:27.516Z,96.66
2018-08-24T06:53:27.591Z,99.15
2018-08-24T06:54:27.514Z,97.61
2018-08-24T06:55:27.518Z,98.19
2018-08-24T06:56:27.516Z,98.10
2018-08-24T06:57:27.511Z,98.58
2018-08-24T06:58:27.514Z,99.15
2018-08-24T06:59:27.557Z,99.34
2018-08-24T07:00:27.505Z,99.99
2018-08-24T07:01:27.507Z,99.54
2018-08-24T07:02:27.501Z,99.34
2018-08-24T07:03:27.509Z,99.99
2018-08-24T07:04:27.500Z,99.87
2018-08-24T07:05:27.499Z,97.76
2018-08-24T07:06:27.501Z,98.29
2018-08-24T07:07:27.498Z,98.58
2018-08-24T07:08:27.495Z,98.77
2018-08-24T07:09:27.496Z,99.82
2018-08-24T07:10:27.509Z,99.99
2018-08-24T07:11:27.504Z,99.99
2018-08-24T07:12:27.501Z,99.99
2018-08-24T07:13:27.508Z,99.99
2018-08-24T07:14:27.502Z,99.99
2018-08-24T07:15:27.509Z,99.99
2018-08-24T07:16:27.498Z,99.99
2018-08-24T07:17:27.504Z,99.99
2018-08-24T07:18:27.485Z,99.99
2018-08-24T07:19:27.485Z,99.99
2018-08-24T07:20:27.481Z,99.99
2018-08-24T07:21:27.491Z,99.99
2018-08-24T07:22:27.480Z,99.99
2018-08-24T07:23:27.489Z,99.99
2018-08-24T07:24:27.482Z,99.99
2018-08-24T07:25:27.517Z,99.99
2018-08-24T07:26:27.488Z,99.99
2018-08-24T07:27:27.490Z,99.99
2018-08-24T07:28:27.519Z,99.99
2018-08-24T07:29:27.527Z,99.99
2018-08-24T07:30:27.520Z,99.99
2018-08-24T07:31:27.526Z,99.99
2018-08-24T07:32:27.525Z,99.99
2018-08-24T07:33:27.528Z,99.99
2018-08-24T07:34:27.526Z,99.99
2018-08-24T07:35:27.501Z,99.99
2018-08-24T07:36:27.508Z,99.99
2018-08-24T07:37:27.513Z,99.99
2018-08-24T07:38:27.519Z,99.99
2018-08-24T07:39:27.515Z,99.99
2018-08-24T07:40:27.522Z,99.99
2018-08-24T07:41:27.579Z,99.99
2018-08-24T07:42:27.529Z,99.99
2018-08-24T07:43:27.530Z,99.99
2018-08-24T07:44:27.538Z,99.99
2018-08-24T07:45:27.539Z,99.99
2018-08-24T07:46:27.542Z,99.99
2018-08-24T07:47:27.544Z,99.99
2018-08-24T07:48:27.547Z,99.99
2018-08-24T07:49:27.553Z,99.99
2018-08-24T07:50:27.554Z,99.99
2018-08-24T07:51:27.577Z,99.99
2018-08-24T07:52:27.567Z,99.99
2018-08-24T07:53:27.562Z,99.99
2018-08-24T07:54:27.571Z,99.99
2018-08-24T07:55:27.570Z,99.99
2018-08-24T07:56:27.576Z,99.99
2018-08-24T07:57:27.585Z,99.99
2018-08-24T07:58:27.590Z,99.99
2018-08-24T07:59:27.607Z,99.99
2018-08-24T08:00:27.600Z,99.99
2018-08-24T08:01:27.602Z,99.99
2018-08-24T08:02:27.613Z,99.99
2018-08-24T08:03:27.623Z,99.99
2018-08-24T08:04:27.623Z,99.99
2018-08-24T08:05:27.752Z,99.99
2018-08-24T08:06:27.629Z,99.99
2018-08-24T08:07:27.633Z,99.99
2018-08-24T08:08:27.636Z,99.99
2018-08-24T08:09:27.640Z,99.99
2018-08-24T08:10:27.650Z,99.99
2018-08-24T08:11:27.651Z,99.99
2018-08-24T08:12:27.660Z,99.99
2018-08-24T08:13:27.661Z,99.99
2018-08-24T08:14:27.662Z,99.99
2018-08-24T08:15:27.664Z,99.99
2018-08-24T08:16:27.668Z,99.99
2018-08-24T08:17:27.671Z,99.99
2018-08-24T08:18:27.678Z,99.99
2018-08-24T08:19:27.679Z,99.99
2018-08-24T08:20:27.683Z,99.99
2018-08-24T08:21:27.685Z,99.99
2018-08-24T08:22:27.690Z,99.99
2018-08-24T08:23:27.692Z,99.99
2018-08-24T08:24:27.700Z,99.99
2018-08-24T08:25:27.705Z,99.99
2018-08-24T08:26:27.704Z,99.99
2018-08-24T08:27:27.705Z,99.99
2018-08-24T08:28:27.708Z,99.99
2018-08-24T08:29:27.721Z,99.99
2018-08-24T08:30:27.718Z,99.99
2018-08-24T08:31:27.719Z,99.99
2018-08-24T08:32:27.738Z,99.99
2018-08-24T08:33:27.731Z,99.99
2018-08-24T08:34:27.729Z,99.99
2018-08-24T08:35:27.736Z,99.99
2018-08-24T08:36:27.825Z,99.99
2018-08-24T08:37:27.751Z,99.99
2018-08-24T08:38:27.744Z,99.99
2018-08-24T08:39:27.749Z,99.99
2018-08-24T08:40:27.749Z,99.99
2018-08-24T08:41:27.754Z,99.99
2018-08-24T08:42:27.758Z,99.99
2018-08-24T08:43:27.759Z,99.99
2018-08-24T08:44:27.764Z,99.99
2018-08-24T08:45:27.834Z,99.99
2018-08-24T08:46:27.816Z,99.99
2018-08-24T08:47:27.771Z,99.99
2018-08-24T08:48:27.767Z,99.99
2018-08-24T08:49:27.775Z,99.99
2018-08-24T08:50:27.780Z,99.99
2018-08-24T08:51:27.783Z,99.99
2018-08-24T08:52:27.791Z,99.99
2018-08-24T08:53:27.826Z,99.99
2018-08-24T08:54:27.791Z,99.99
2018-08-24T08:55:27.792Z,99.99
2018-08-24T08:56:27.799Z,99.99
2018-08-24T08:57:27.797Z,99.99
2018-08-24T08:58:27.852Z,99.99
2018-08-24T08:59:27.802Z,99.99
2018-08-24T09:00:27.809Z,99.99
2018-08-24T09:01:27.811Z,99.99
2018-08-24T09:02:27.815Z,99.99
2018-08-24T09:03:27.817Z,99.99
2018-08-24T09:04:27.823Z,99.99
2018-08-24T09:05:27.843Z,99.99
2018-08-24T09:06:27.924Z,99.99
2018-08-24T09:07:27.831Z,99.99
2018-08-24T09:08:27.832Z,99.99
2018-08-24T09:09:27.831Z,99.99
2018-08-24T09:10:27.841Z,99.99
2018-08-24T09:11:27.839Z,99.99
2018-08-24T09:12:27.841Z,99.99
2018-08-24T09:13:27.841Z,99.99
2018-08-24T09:14:27.848Z,99.99
2018-08-24T09:15:27.847Z,99.99
2018-08-24T09:16:27.848Z,99.99
2018-08-24T09:17:27.850Z,99.99
2018-08-24T09:18:27.920Z,99.99
2018-08-24T09:19:27.850Z,99.99
2018-08-24T09:20:27.855Z,99.99
2018-08-24T09:21:27.856Z,99.99
2018-08-24T09:22:27.861Z,99.99
2018-08-24T09:23:27.857Z,99.99
2018-08-24T09:24:27.865Z,99.99
2018-08-24T09:25:27.966Z,99.99
2018-08-24T09:26:27.864Z,99.99
2018-08-24T09:27:27.863Z,99.99
2018-08-24T09:28:27.871Z,99.99
2018-08-24T09:29:27.867Z,99.99
2018-08-24T09:30:27.867Z,99.99
2018-08-24T09:31:27.869Z,99.99
2018-08-24T09:32:27.916Z,99.99
2018-08-24T09:33:27.876Z,99.99
2018-08-24T09:34:27.875Z,99.99
2018-08-24T09:35:27.875Z,99.99
2018-08-24T09:36:27.877Z,99.99
2018-08-24T09:37:27.878Z,99.99
2018-08-24T09:38:27.879Z,99.99
2018-08-24T09:39:27.879Z,99.99
2018-08-24T09:40:27.877Z,99.99
2018-08-24T09:41:27.880Z,99.99
2018-08-24T09:42:27.881Z,99.99
2018-08-24T09:43:27.886Z,99.99
2018-08-24T09:44:27.881Z,99.99
2018-08-24T09:45:27.881Z,99.99
2018-08-24T09:46:27.885Z,99.99
2018-08-24T09:47:27.883Z,99.99
2018-08-24T09:48:27.886Z,99.99
2018-08-24T09:49:27.887Z,99.99
2018-08-24T09:50:27.891Z,99.99
2018-08-24T09:51:27.887Z,99.99
2018-08-24T09:52:27.889Z,99.99
2018-08-24T09:53:27.893Z,99.99
2018-08-24T09:54:27.894Z,99.99
2018-08-24T09:55:27.898Z,99.99
2018-08-24T09:56:27.902Z,99.99
2018-08-24T09:57:27.907Z,99.99
2018-08-24T09:58:27.908Z,99.99
2018-08-24T09:59:27.911Z,97.28
2018-08-24T10:00:27.921Z,95.82
2018-08-24T10:01:27.924Z,97.03
2018-08-24T10:02:27.933Z,94.02
2018-08-24T10:03:27.937Z,93.59
2018-08-24T10:04:27.953Z,90.72
2018-08-24T10:05:27.954Z,91.25
2018-08-24T10:06:28.047Z,88.56
2018-08-24T10:07:27.972Z,87.98
2018-08-24T10:08:27.975Z,85.75
2018-08-24T10:09:27.972Z,93.63
2018-08-24T10:10:27.990Z,89.43
2018-08-24T10:11:28.001Z,84.66
2018-08-24T10:12:28.010Z,82.47
2018-08-24T10:13:28.083Z,86.99
2018-08-24T10:14:28.031Z,94.52
2018-08-24T10:15:28.038Z,96.45
2018-08-24T10:16:28.050Z,95.87
2018-08-24T10:17:28.057Z,97.28
2018-08-24T10:18:28.064Z,95.63
2018-08-24T10:19:28.086Z,95.68
2018-08-24T10:20:28.088Z,94.07
2018-08-24T10:21:28.093Z,93.83
2018-08-24T10:22:28.107Z,92.57
2018-08-24T10:23:28.110Z,92.58
2018-08-24T10:24:28.125Z,93.35
2018-08-24T10:25:28.127Z,94.61
2018-08-24T10:26:28.147Z,94.60
2018-08-24T10:27:28.144Z,91.83
2018-08-24T10:28:28.154Z,89.59
2018-08-24T10:29:28.291Z,89.74
2018-08-24T10:30:28.170Z,87.29
2018-08-24T10:31:28.182Z,83.11
2018-08-24T10:32:28.192Z,84.22
2018-08-24T10:33:28.199Z,81.69
2018-08-24T10:34:28.222Z,79.59
2018-08-24T10:35:28.222Z,80.07
2018-08-24T10:36:28.230Z,80.23
2018-08-24T10:37:28.239Z,78.63
2018-08-24T10:38:28.253Z,79.35
2018-08-24T10:39:28.265Z,78.48
2018-08-24T10:40:28.275Z,78.44
2018-08-24T10:41:28.289Z,78.83
2018-08-24T10:42:28.299Z,78.28
2018-08-24T10:43:28.353Z,78.16
2018-08-24T10:44:28.324Z,77.64
2018-08-24T10:45:28.339Z,74.33
2018-08-24T10:46:28.349Z,75.69
2018-08-24T10:47:28.451Z,74.82
2018-08-24T10:48:28.375Z,75.82
2018-08-24T10:49:28.405Z,74.37
2018-08-24T10:50:28.398Z,73.00
2018-08-24T10:51:28.463Z,73.66
2018-08-24T10:52:28.425Z,71.41
2018-08-24T10:53:28.435Z,70.83
2018-08-24T10:54:28.451Z,72.58
2018-08-24T10:55:28.463Z,72.12
2018-08-24T10:56:28.524Z,72.47
2018-08-24T10:57:28.573Z,73.22
2018-08-24T10:58:28.548Z,72.64
2018-08-24T10:59:28.517Z,74.74
2018-08-24T11:00:28.577Z,73.96
2018-08-24T11:01:28.575Z,74.19
2018-08-24T11:02:28.584Z,74.85
2018-08-24T11:03:28.577Z,75.49
2018-08-24T11:04:28.631Z,75.43
2018-08-24T11:05:28.713Z,72.83
2018-08-24T11:06:28.621Z,72.38
2018-08-24T11:07:28.809Z,72.12
2018-08-24T11:08:28.640Z,70.85
2018-08-24T11:09:28.666Z,73.93
2018-08-24T11:10:28.668Z,74.22
2018-08-24T11:11:28.701Z,75.62
2018-08-24T11:12:28.695Z,73.84
2018-08-24T11:13:28.710Z,72.15
2018-08-24T11:14:28.720Z,71.41
2018-08-24T11:15:28.744Z,71.92
2018-08-24T11:16:28.747Z,70.78
2018-08-24T11:17:28.763Z,72.60
2018-08-24T11:18:28.782Z,71.60
2018-08-24T11:19:29.267Z,70.70
2018-08-24T11:20:28.898Z,68.95
2018-08-24T11:21:28.902Z,66.34
2018-08-24T11:22:28.829Z,65.07
2018-08-24T11:23:28.846Z,66.34
2018-08-24T11:24:28.863Z,65.56
2018-08-24T11:25:28.873Z,66.17
2018-08-24T11:26:28.910Z,65.14
2018-08-24T11:27:28.900Z,65.36
2018-08-24T11:28:28.937Z,66.34
2018-08-24T11:29:28.980Z,65.07
2018-08-24T11:30:28.938Z,65.26
2018-08-24T11:31:28.951Z,65.78
2018-08-24T11:32:29.014Z,67.12
2018-08-24T11:33:29.027Z,68.23
2018-08-24T11:34:29.030Z,67.28
2018-08-24T11:35:29.062Z,66.50
2018-08-24T11:36:29.135Z,67.05
2018-08-24T11:37:29.047Z,65.56
2018-08-24T11:38:29.100Z,64.36
2018-08-24T11:39:29.074Z,64.97
2018-08-24T11:40:29.086Z,64.16
2018-08-24T11:41:29.100Z,63.77
2018-08-24T11:42:29.119Z,64.78
2018-08-24T11:43:29.130Z,64.06
2018-08-24T11:44:29.143Z,64.06
2018-08-24T11:45:29.158Z,64.06
2018-08-24T11:46:29.183Z,64.00
2018-08-24T11:47:29.187Z,64.52
2018-08-24T11:48:29.200Z,65.20
2018-08-24T11:49:29.222Z,64.78
2018-08-24T11:50:29.228Z,64.29
2018-08-24T11:51:29.242Z,61.89
2018-08-24T11:52:29.258Z,62.08
2018-08-24T11:53:29.294Z,62.66
2018-08-24T11:54:29.354Z,62.73
2018-08-24T11:55:29.297Z,60.88
2018-08-24T11:56:29.311Z,60.97
2018-08-24T11:57:29.317Z,60.06
2018-08-24T11:58:29.344Z,60.85
2018-08-24T11:59:29.352Z,60.39
2018-08-24T12:00:29.371Z,61.30
2018-08-24T12:01:29.384Z,60.23
2018-08-24T12:02:29.400Z,60.39
2018-08-24T12:03:29.413Z,60.03
2018-08-24T12:04:29.429Z,61.21
2018-08-24T12:05:29.441Z,60.33
2018-08-24T12:06:29.449Z,59.26
2018-08-24T12:07:29.460Z,60.94
2018-08-24T12:08:29.574Z,59.97
2018-08-24T12:09:29.489Z,60.19
2018-08-24T12:10:29.504Z,59.96
2018-08-24T12:11:29.514Z,59.38
2018-08-24T12:12:29.578Z,58.56
2018-08-24T12:13:29.542Z,59.34
2018-08-24T12:14:29.563Z,58.79
2018-08-24T12:15:29.589Z,58.50
2018-08-24T12:16:29.585Z,58.50
2018-08-24T12:17:29.597Z,57.84
2018-08-24T12:18:29.692Z,58.79
2018-08-24T12:19:29.620Z,60.32
2018-08-24T12:20:29.635Z,60.03
2018-08-24T12:21:29.660Z,59.93
2018-08-24T12:22:29.659Z,61.57
2018-08-24T12:23:29.681Z,63.25
2018-08-24T12:24:29.693Z,62.73
2018-08-24T12:25:29.700Z,62.44
2018-08-24T12:26:29.713Z,64.81
2018-08-24T12:27:29.773Z,64.29
2018-08-24T12:28:29.748Z,66.40
2018-08-24T12:29:29.753Z,67.08
2018-08-24T12:30:29.766Z,67.47
2018-08-24T12:31:29.773Z,66.27
2018-08-24T12:32:29.859Z,68.08
2018-08-24T12:33:29.797Z,68.99
2018-08-24T12:34:29.808Z,69.15
2018-08-24T12:35:29.813Z,68.18
2018-08-24T12:36:29.836Z,68.60
2018-08-24T12:37:29.833Z,68.60
2018-08-24T12:38:29.852Z,67.89
2018-08-24T12:39:29.853Z,69.35
2018-08-24T12:40:29.860Z,70.36
2018-08-24T12:41:29.867Z,71.03
2018-08-24T12:42:29.879Z,69.58
2018-08-24T12:43:29.947Z,69.67
2018-08-24T12:44:29.890Z,69.77
2018-08-24T12:45:29.901Z,70.77
2018-08-24T12:46:29.908Z,72.81
2018-08-24T12:47:29.915Z,72.61
2018-08-24T12:48:29.923Z,72.52
2018-08-24T12:49:30.019Z,70.29
2018-08-24T12:50:29.940Z,69.80
2018-08-24T12:51:29.941Z,71.94
2018-08-24T12:52:29.950Z,71.26
2018-08-24T12:53:29.966Z,71.16
2018-08-24T12:54:29.963Z,72.42
2018-08-24T12:55:29.969Z,72.27
2018-08-24T12:56:29.975Z,69.67
2018-08-24T12:57:30.001Z,69.09
2018-08-24T12:58:29.990Z,68.18
2018-08-24T12:59:29.993Z,68.38
2018-08-24T13:00:29.998Z,68.96
2018-08-24T13:01:30.015Z,70.16
2018-08-24T13:02:30.016Z,67.31
2018-08-24T13:03:30.022Z,67.31
2018-08-24T13:04:30.028Z,67.18
2018-08-24T13:05:30.032Z,67.47
2018-08-24T13:06:30.036Z,68.54
2018-08-24T13:07:30.041Z,68.51
2018-08-24T13:08:30.055Z,68.70
2018-08-24T13:09:30.059Z,69.34
2018-08-24T13:10:30.060Z,69.57
2018-08-24T13:11:30.064Z,69.67
2018-08-24T13:12:30.070Z,69.28
2018-08-24T13:13:30.082Z,68.93
2018-08-24T13:14:30.088Z,70.57
2018-08-24T13:15:30.086Z,70.48
2018-08-24T13:16:30.094Z,69.70
2018-08-24T13:17:30.109Z,68.25
2018-08-24T13:18:30.114Z,69.57
2018-08-24T13:19:30.109Z,69.57
2018-08-24T13:20:30.115Z,70.35
2018-08-24T13:21:30.152Z,71.45
2018-08-24T13:22:30.127Z,71.36
2018-08-24T13:23:30.128Z,70.25
2018-08-24T13:24:30.141Z,71.22
2018-08-24T13:25:30.145Z,71.58
2018-08-24T13:26:30.147Z,72.19
2018-08-24T13:27:30.159Z,71.03
2018-08-24T13:28:30.159Z,72.00
2018-08-24T13:29:30.171Z,73.07
2018-08-24T13:30:30.173Z,72.61
2018-08-24T13:31:30.179Z,72.27
2018-08-24T13:32:30.182Z,72.91
2018-08-24T13:33:30.189Z,71.36
2018-08-24T13:34:30.192Z,72.33
2018-08-24T13:35:30.213Z,72.52
2018-08-24T13:36:30.202Z,73.30
2018-08-24T13:37:30.212Z,73.97